createdAt,value
2023-04-18T00:01:08.519Z,9.33
2023-04-18T00:03:38.073Z,10.07
2023-04-18T00:06:05.435Z,10.45
2023-04-18T00:08:33.983Z,9.93
2023-04-18T00:11:02.296Z,10.45
2023-04-18T00:13:29.007Z,11.10
2023-04-18T00:15:57.123Z,9.85
2023-04-18T00:18:24.195Z,9.65
2023-04-18T00:20:51.046Z,9.50
2023-04-18T00:23:17.834Z,8.73
2023-04-18T00:25:44.692Z,10.27
2023-04-18T00:28:11.506Z,9.95
2023-04-18T00:30:38.290Z,9.50
2023-04-18T00:33:05.326Z,8.15
2023-04-18T00:35:57.045Z,10.05
2023-04-18T00:38:24.083Z,9.00
2023-04-18T00:40:50.957Z,9.50
2023-04-18T00:43:17.684Z,8.38
2023-04-18T00:45:44.922Z,9.15
2023-04-18T00:48:12.060Z,9.35
2023-04-18T00:50:40.608Z,9.80
2023-04-18T00:53:11.268Z,9.38
2023-04-18T00:55:39.144Z,7.72
2023-04-18T00:58:06.036Z,8.02
2023-04-18T01:00:33.366Z,7.82
2023-04-18T01:03:00.899Z,9.43
2023-04-18T01:05:27.881Z,8.25
2023-04-18T01:07:55.472Z,8.55
2023-04-18T01:10:22.239Z,8.55
2023-04-18T01:12:49.900Z,7.93
2023-04-18T01:15:17.321Z,8.03
2023-04-18T01:17:44.146Z,7.47
2023-04-18T01:20:13.814Z,6.63
2023-04-18T01:22:40.733Z,7.25
2023-04-18T01:25:09.309Z,7.07
2023-04-18T01:27:36.323Z,9.33
2023-04-18T01:30:03.222Z,7.88
2023-04-18T01:32:30.118Z,7.82
2023-04-18T01:34:57.772Z,6.95
2023-04-18T01:37:24.540Z,6.35
2023-04-18T01:39:51.398Z,6.03
2023-04-18T01:42:18.942Z,4.93
2023-04-18T01:44:45.663Z,6.18
2023-04-18T01:47:12.900Z,6.10
2023-04-18T01:49:41.008Z,5.28
2023-04-18T01:52:08.643Z,6.07
2023-04-18T01:54:35.623Z,6.80
2023-04-18T01:57:02.346Z,6.35
2023-04-18T01:59:30.706Z,6.63
2023-04-18T02:01:59.132Z,5.97
2023-04-18T02:04:26.680Z,6.70
2023-04-18T02:06:53.544Z,7.00
2023-04-18T02:09:20.475Z,7.65
2023-04-18T02:11:47.344Z,6.88
2023-04-18T02:14:14.387Z,7.20
2023-04-18T02:16:41.921Z,7.53
2023-04-18T02:19:08.692Z,6.07
2023-04-18T02:21:35.591Z,6.15
2023-04-18T02:24:02.256Z,6.60
2023-04-18T02:26:30.704Z,7.35
2023-04-18T02:28:57.930Z,6.90
2023-04-18T02:31:24.925Z,7.18
2023-04-18T02:33:51.680Z,7.30
2023-04-18T02:36:22.036Z,7.22
2023-04-18T02:38:48.853Z,7.63
2023-04-18T02:41:15.642Z,7.43
2023-04-18T02:43:43.273Z,7.93
2023-04-18T02:46:10.721Z,5.55
2023-04-18T02:48:38.014Z,7.63
2023-04-18T02:51:08.719Z,7.82
2023-04-18T02:53:37.936Z,8.30
2023-04-18T02:56:05.879Z,6.45
2023-04-18T02:58:51.455Z,6.20
2023-04-18T03:01:48.578Z,6.28
2023-04-18T03:04:18.775Z,6.15
2023-04-18T03:06:54.971Z,5.77
2023-04-18T03:09:22.630Z,5.07
2023-04-18T03:11:55.712Z,6.25
2023-04-18T03:14:26.240Z,4.95
2023-04-18T03:16:55.775Z,6.10
2023-04-18T03:19:28.029Z,6.93
2023-04-18T03:21:56.460Z,5.75
2023-04-18T03:24:23.365Z,5.93
2023-04-18T03:26:52.891Z,5.45
2023-04-18T03:29:25.200Z,6.43
2023-04-18T03:31:53.784Z,5.87
2023-04-18T03:34:20.591Z,5.28
2023-04-18T03:36:48.415Z,5.70
2023-04-18T03:39:19.833Z,6.72
2023-04-18T03:41:46.702Z,5.07
2023-04-18T03:44:14.529Z,5.70
2023-04-18T03:46:42.269Z,4.47
2023-04-18T03:49:10.424Z,5.07
2023-04-18T03:51:50.346Z,6.10
2023-04-18T03:54:18.505Z,6.20
2023-04-18T03:56:50.346Z,5.10
2023-04-18T03:59:19.008Z,4.93
2023-04-18T04:01:49.187Z,5.22
2023-04-18T04:04:17.935Z,5.03
2023-04-18T04:06:45.433Z,6.32
2023-04-18T04:09:16.581Z,5.23
2023-04-18T04:11:44.329Z,4.55
2023-04-18T04:14:13.861Z,4.90
2023-04-18T04:16:46.366Z,4.68
2023-04-18T04:19:16.231Z,5.55
2023-04-18T04:21:58.462Z,4.77
2023-04-18T04:24:27.141Z,6.05
2023-04-18T04:26:54.672Z,4.78
2023-04-18T04:29:23.984Z,6.18
2023-04-18T04:31:53.111Z,4.25
2023-04-18T04:34:31.226Z,5.03
2023-04-18T04:36:59.390Z,4.07
2023-04-18T04:39:31.222Z,5.03
2023-04-18T04:42:21.199Z,5.13
2023-04-18T04:44:56.156Z,6.30
2023-04-18T04:47:24.184Z,5.10
2023-04-18T04:49:50.943Z,4.55
2023-04-18T04:52:18.450Z,5.05
2023-04-18T04:54:45.898Z,4.25
2023-04-18T04:57:15.237Z,4.97
2023-04-18T04:59:44.514Z,4.30
2023-04-18T05:02:12.416Z,4.47
2023-04-18T05:04:41.270Z,3.92
2023-04-18T05:07:08.357Z,4.63
2023-04-18T05:09:35.140Z,2.92
2023-04-18T05:12:02.882Z,2.50
2023-04-18T05:14:29.559Z,4.28
2023-04-18T05:16:57.282Z,3.58
2023-04-18T05:19:24.150Z,3.20
2023-04-18T05:21:51.231Z,5.80
2023-04-18T05:24:18.062Z,3.97
2023-04-18T05:26:44.983Z,7.40
2023-04-18T05:29:15.300Z,4.53
2023-04-18T05:31:42.882Z,3.20
2023-04-18T05:34:12.378Z,4.13
2023-04-18T05:36:39.283Z,3.07
2023-04-18T05:39:06.920Z,3.33
2023-04-18T05:41:35.061Z,4.22
2023-04-18T05:44:05.607Z,5.57
2023-04-18T05:46:35.207Z,2.92
2023-04-18T05:51:53.714Z,2.72
2023-04-18T05:54:20.379Z,2.88
2023-04-18T05:56:47.401Z,2.83
2023-04-18T05:59:14.349Z,3.28
2023-04-18T06:01:41.291Z,2.40
2023-04-18T06:04:09.621Z,2.90
2023-04-18T06:06:38.298Z,3.00
2023-04-18T06:09:05.195Z,3.50
2023-04-18T06:11:31.899Z,3.05
2023-04-18T06:13:59.032Z,3.83
2023-04-18T06:16:25.867Z,3.13
2023-04-18T06:18:53.774Z,3.30
2023-04-18T06:21:22.352Z,2.55
2023-04-18T06:23:50.646Z,3.85
2023-04-18T06:26:18.294Z,4.10
2023-04-18T06:28:45.001Z,2.53
2023-04-18T06:31:12.383Z,3.33
2023-04-18T06:33:39.473Z,2.70
2023-04-18T06:36:10.515Z,3.25
2023-04-18T06:38:37.326Z,4.63
2023-04-18T06:41:05.879Z,4.63
2023-04-18T06:43:36.530Z,3.28
2023-04-18T06:46:05.532Z,2.58
2023-04-18T06:48:32.278Z,3.05
2023-04-18T06:51:03.665Z,2.53
2023-04-18T06:53:33.699Z,3.58
2023-04-18T06:56:01.410Z,3.50
2023-04-18T06:58:53.241Z,2.55
2023-04-18T07:01:21.534Z,3.25
2023-04-18T07:03:48.360Z,2.53
2023-04-18T07:06:15.628Z,3.85
2023-04-18T07:08:46.290Z,5.20
2023-04-18T07:11:13.693Z,4.15
2023-04-18T07:13:40.399Z,2.95
2023-04-18T07:19:00.818Z,3.05
2023-04-18T07:21:27.520Z,2.55
2023-04-18T07:23:56.280Z,3.80
2023-04-18T07:26:23.840Z,2.25
2023-04-18T07:28:52.263Z,2.23
2023-04-18T07:31:19.008Z,2.75
2023-04-18T07:33:48.484Z,3.00
2023-04-18T07:36:15.233Z,2.58
2023-04-18T07:38:44.286Z,5.93
2023-04-18T07:41:13.648Z,3.63
2023-04-18T07:43:40.668Z,3.03
2023-04-18T07:46:07.781Z,2.95
2023-04-18T07:48:34.639Z,3.00
2023-04-18T07:51:01.398Z,2.60
2023-04-18T07:53:29.866Z,3.33
2023-04-18T07:55:57.366Z,2.65
2023-04-18T07:58:24.675Z,3.13
2023-04-18T08:00:51.375Z,4.07
2023-04-18T08:03:18.932Z,3.30
2023-04-18T08:05:45.885Z,7.53
2023-04-18T08:08:12.975Z,9.52
2023-04-18T08:10:43.771Z,4.50
2023-04-18T08:13:10.500Z,3.40
2023-04-18T08:15:37.416Z,3.22
2023-04-18T08:18:04.239Z,3.83
2023-04-18T08:20:31.696Z,4.90
2023-04-18T08:23:07.578Z,8.73
2023-04-18T08:25:38.343Z,3.33
2023-04-18T08:28:05.790Z,7.90
2023-04-18T08:30:32.648Z,5.37
2023-04-18T08:33:03.399Z,4.25
2023-04-18T08:35:30.768Z,6.43
2023-04-18T08:37:57.456Z,4.85
2023-04-18T08:40:24.879Z,3.78
2023-04-18T08:42:52.938Z,3.97
2023-04-18T08:45:20.461Z,3.42
2023-04-18T08:47:47.527Z,7.10
2023-04-18T08:50:14.238Z,4.72
2023-04-18T08:52:46.058Z,4.78
2023-04-18T08:55:13.796Z,4.20
2023-04-18T08:57:40.532Z,4.35
2023-04-18T09:00:08.390Z,5.18
2023-04-18T09:02:40.577Z,7.35
2023-04-18T09:05:20.342Z,6.30
2023-04-18T09:07:49.563Z,8.00
2023-04-18T09:10:35.373Z,5.13
2023-04-18T09:13:03.943Z,4.35
2023-04-18T09:15:31.341Z,4.80
2023-04-18T09:18:04.613Z,4.95
2023-04-18T09:20:41.663Z,5.10
2023-04-18T09:23:13.154Z,5.40
2023-04-18T09:25:47.417Z,5.57
2023-04-18T09:28:28.304Z,6.72
2023-04-18T09:30:56.876Z,6.35
2023-04-18T09:33:31.289Z,6.67
2023-04-18T09:36:26.115Z,5.35
2023-04-18T09:38:58.405Z,5.20
2023-04-18T09:41:28.741Z,5.75
2023-04-18T09:44:14.409Z,5.45
2023-04-18T09:47:07.251Z,6.63
2023-04-18T09:49:34.210Z,13.48
2023-04-18T09:52:32.121Z,8.52
2023-04-18T09:55:02.402Z,18.00
2023-04-18T09:57:31.305Z,14.48
2023-04-18T10:00:10.531Z,13.73
2023-04-18T10:02:48.439Z,6.28
2023-04-18T10:05:15.710Z,12.35
2023-04-18T10:07:45.876Z,5.88
2023-04-18T10:10:13.237Z,5.07
2023-04-18T10:12:45.268Z,5.43
2023-04-18T10:15:12.836Z,6.78
2023-04-18T10:20:49.337Z,6.20
2023-04-18T10:23:32.252Z,5.65
2023-04-18T10:25:59.443Z,5.83
2023-04-18T10:28:26.614Z,4.95
2023-04-18T10:31:02.382Z,4.97
2023-04-18T10:33:42.469Z,4.53
2023-04-18T10:36:09.672Z,10.32
2023-04-18T10:38:37.831Z,6.67
2023-04-18T10:41:23.083Z,5.65
2023-04-18T10:44:11.207Z,6.47
2023-04-18T10:46:39.311Z,4.85
2023-04-18T10:49:13.443Z,6.07
2023-04-18T10:55:05.406Z,6.03
2023-04-18T10:57:49.705Z,6.38
2023-04-18T11:00:19.060Z,5.07
2023-04-18T11:02:50.222Z,6.00
2023-04-18T11:05:22.262Z,7.97
2023-04-18T11:07:49.912Z,6.88
2023-04-18T11:10:19.057Z,6.55
2023-04-18T11:12:50.377Z,4.75
2023-04-18T11:15:27.099Z,4.90
2023-04-18T11:18:00.013Z,5.03
2023-04-18T11:20:27.654Z,5.15
2023-04-18T11:22:57.479Z,5.93
2023-04-18T11:25:35.386Z,5.30
2023-04-18T11:28:06.292Z,5.35
2023-04-18T11:30:38.955Z,6.27
2023-04-18T11:33:09.404Z,5.93
2023-04-18T11:35:39.119Z,6.32
2023-04-18T11:38:06.657Z,5.72
2023-04-18T11:40:33.594Z,5.68
2023-04-18T11:43:05.773Z,5.93
2023-04-18T11:45:33.969Z,5.30
2023-04-18T11:48:02.434Z,7.93
2023-04-18T11:50:35.746Z,4.85
2023-04-18T11:53:04.282Z,7.57
2023-04-18T11:55:32.904Z,5.30
2023-04-18T11:58:02.599Z,5.95
2023-04-18T12:00:36.965Z,5.65
2023-04-18T12:03:07.074Z,6.05
2023-04-18T12:05:36.613Z,5.47
2023-04-18T12:08:09.279Z,5.70
2023-04-18T12:10:36.896Z,6.03
2023-04-18T12:13:08.549Z,5.60
2023-04-18T12:15:39.439Z,5.50
2023-04-18T12:18:06.810Z,5.57
2023-04-18T12:20:35.530Z,6.40
2023-04-18T12:23:03.409Z,5.85
2023-04-18T12:25:30.304Z,4.85
2023-04-18T12:28:00.374Z,5.10
2023-04-18T12:30:35.964Z,6.32
2023-04-18T12:33:05.353Z,5.03
2023-04-18T12:35:32.937Z,5.35
2023-04-18T12:38:02.101Z,5.25
2023-04-18T12:40:30.047Z,4.70
2023-04-18T12:43:02.869Z,5.40
2023-04-18T12:45:34.366Z,9.63
2023-04-18T12:48:01.303Z,4.53
2023-04-18T12:50:28.933Z,5.72
2023-04-18T12:52:59.442Z,5.30
2023-04-18T12:55:28.762Z,4.97
2023-04-18T12:57:56.375Z,5.93
2023-04-18T13:00:48.300Z,6.63
2023-04-18T13:03:16.139Z,4.70
2023-04-18T13:05:43.241Z,6.22
2023-04-18T13:08:17.499Z,5.60
2023-04-18T13:10:46.826Z,7.27
2023-04-18T13:13:13.947Z,4.90
2023-04-18T13:15:40.704Z,6.28
2023-04-18T13:18:07.787Z,5.75
2023-04-18T13:20:35.707Z,5.07
2023-04-18T13:23:03.290Z,5.57
2023-04-18T13:25:30.094Z,5.20
2023-04-18T13:27:57.732Z,4.95
2023-04-18T13:30:24.525Z,4.68
2023-04-18T13:32:51.547Z,4.88
2023-04-18T13:35:19.381Z,4.30
2023-04-18T13:37:46.335Z,5.60
2023-04-18T13:40:13.630Z,5.55
2023-04-18T13:42:40.848Z,4.05
2023-04-18T13:45:07.928Z,3.97
2023-04-18T13:47:36.005Z,4.30
2023-04-18T13:50:02.899Z,5.45
2023-04-18T13:52:29.660Z,5.05
2023-04-18T13:54:58.272Z,4.65
2023-04-18T13:57:24.932Z,7.07
2023-04-18T13:59:51.732Z,6.10
2023-04-18T14:02:18.602Z,4.65
2023-04-18T14:04:45.526Z,4.03
2023-04-18T14:07:13.333Z,4.90
2023-04-18T14:09:40.104Z,4.80
2023-04-18T14:12:08.506Z,4.87
2023-04-18T14:14:35.208Z,5.55
2023-04-18T14:17:03.324Z,4.50
2023-04-18T14:19:30.063Z,5.63
2023-04-18T14:21:56.876Z,6.07
2023-04-18T14:24:27.334Z,5.23
2023-04-18T14:26:54.817Z,6.68
2023-04-18T14:29:21.628Z,4.43
2023-04-18T14:31:48.704Z,4.22
2023-04-18T14:34:17.006Z,4.80
2023-04-18T14:36:44.360Z,5.23
2023-04-18T14:39:11.192Z,4.85
2023-04-18T14:41:38.362Z,4.47
2023-04-18T14:44:05.113Z,4.07
2023-04-18T14:46:32.343Z,5.10
2023-04-18T14:48:59.946Z,5.50
2023-04-18T14:51:26.695Z,7.13
2023-04-18T14:54:18.195Z,5.03
2023-04-18T14:56:45.103Z,5.72
2023-04-18T14:59:13.587Z,6.38
2023-04-18T15:01:44.236Z,5.17
2023-04-18T15:04:11.293Z,6.22
2023-04-18T15:07:09.054Z,4.72
2023-04-18T15:09:38.227Z,4.80
2023-04-18T15:12:06.297Z,7.43
2023-04-18T15:14:34.018Z,5.13
2023-04-18T15:17:00.822Z,5.03
2023-04-18T15:19:28.294Z,5.18
2023-04-18T15:21:58.392Z,6.10
2023-04-18T15:24:25.200Z,5.30
2023-04-18T15:26:52.841Z,6.67
2023-04-18T15:29:21.362Z,5.47
2023-04-18T15:31:49.900Z,4.78
2023-04-18T15:34:17.413Z,5.97
2023-04-18T15:36:44.513Z,6.18
2023-04-18T15:39:11.242Z,6.47
2023-04-18T15:41:39.968Z,4.88
2023-04-18T15:44:08.335Z,4.80
2023-04-18T15:46:35.046Z,5.68
2023-04-18T15:49:02.878Z,6.22
2023-04-18T15:51:29.624Z,5.40
2023-04-18T15:53:56.999Z,6.88
2023-04-18T15:56:26.410Z,5.85
2023-04-18T15:58:56.495Z,6.65
2023-04-18T16:01:24.363Z,7.55
2023-04-18T16:03:51.128Z,6.03
2023-04-18T16:06:20.375Z,10.15
2023-04-18T16:08:47.073Z,6.47
2023-04-18T16:11:15.021Z,6.13
2023-04-18T16:13:41.840Z,5.65
2023-04-18T16:16:11.906Z,6.23
2023-04-18T16:18:39.387Z,6.28
2023-04-18T16:21:06.275Z,6.75
2023-04-18T16:23:33.088Z,5.80
2023-04-18T16:25:59.905Z,7.25
2023-04-18T16:28:27.212Z,5.97
2023-04-18T16:30:55.617Z,7.68
2023-04-18T16:33:22.861Z,7.40
2023-04-18T16:35:49.700Z,7.85
2023-04-18T16:38:16.736Z,7.60
2023-04-18T16:40:43.556Z,7.57
2023-04-18T16:43:10.910Z,7.30
2023-04-18T16:45:37.719Z,8.23
2023-04-18T16:48:04.973Z,7.80
2023-04-18T16:50:31.863Z,7.53
2023-04-18T16:52:59.148Z,10.07
2023-04-18T16:55:25.992Z,7.45
2023-04-18T16:57:53.101Z,10.27
2023-04-18T17:00:19.990Z,7.40
2023-04-18T17:02:47.313Z,7.93
2023-04-18T17:05:14.508Z,7.03
2023-04-18T17:07:41.701Z,11.55
2023-04-18T17:10:10.127Z,9.25
2023-04-18T17:12:36.959Z,7.68
2023-04-18T17:15:04.608Z,9.00
2023-04-18T17:17:31.509Z,8.27
2023-04-18T17:19:58.278Z,9.15
2023-04-18T17:22:25.537Z,8.27
2023-04-18T17:24:54.758Z,8.57
2023-04-18T17:27:22.197Z,8.35
2023-04-18T17:29:49.426Z,7.80
2023-04-18T17:32:17.400Z,8.27
2023-04-18T17:34:45.066Z,7.22
2023-04-18T17:37:12.731Z,8.35
2023-04-18T17:39:41.294Z,7.53
2023-04-18T17:42:10.305Z,8.40
2023-04-18T17:44:38.758Z,8.27
2023-04-18T17:47:07.016Z,9.45
2023-04-18T17:49:34.457Z,8.00
2023-04-18T17:52:03.582Z,11.32
2023-04-18T17:54:30.647Z,8.33
2023-04-18T17:56:59.346Z,13.43
2023-04-18T17:59:26.720Z,9.38
2023-04-18T18:01:54.796Z,8.63
2023-04-18T18:04:24.906Z,9.18
2023-04-18T18:06:57.715Z,9.37
2023-04-18T18:09:25.242Z,7.78
2023-04-18T18:11:55.324Z,9.60
2023-04-18T18:14:49.742Z,11.15
2023-04-18T18:17:17.342Z,10.15
2023-04-18T18:19:44.225Z,7.80
2023-04-18T18:22:13.063Z,8.13
2023-04-18T18:24:42.200Z,9.23
2023-04-18T18:27:10.645Z,9.93
2023-04-18T18:29:38.784Z,10.10
2023-04-18T18:32:09.560Z,10.03
2023-04-18T18:34:37.037Z,8.27
2023-04-18T18:37:07.445Z,8.40
2023-04-18T18:39:34.840Z,8.85
2023-04-18T18:42:02.564Z,8.35
2023-04-18T18:44:30.207Z,9.63
2023-04-18T18:47:00.841Z,8.95
2023-04-18T18:49:28.326Z,8.10
2023-04-18T18:51:57.456Z,8.93
2023-04-18T18:54:26.993Z,8.60
2023-04-18T18:57:00.176Z,9.73
2023-04-18T18:59:28.088Z,9.10
2023-04-18T19:01:55.494Z,7.90
2023-04-18T19:04:25.331Z,8.85
2023-04-18T19:06:54.037Z,6.43
2023-04-18T19:09:23.534Z,7.67
2023-04-18T19:11:53.371Z,8.48
2023-04-18T19:14:24.388Z,8.57
2023-04-18T19:19:44.181Z,7.97
2023-04-18T19:22:13.780Z,8.27
2023-04-18T19:24:41.145Z,8.10
2023-04-18T19:27:10.854Z,8.32
2023-04-18T19:29:41.486Z,8.23
2023-04-18T19:32:09.849Z,8.18
2023-04-18T19:34:40.656Z,6.60
2023-04-18T19:37:08.786Z,7.93
2023-04-18T19:40:00.846Z,7.70
2023-04-18T19:42:30.846Z,7.43
2023-04-18T19:45:01.334Z,7.40
2023-04-18T19:47:30.026Z,7.00
2023-04-18T19:49:57.515Z,8.23
2023-04-18T19:55:41.725Z,7.38
2023-04-18T19:58:09.718Z,7.55
2023-04-18T20:00:37.942Z,9.33
2023-04-18T20:03:05.719Z,7.95
2023-04-18T20:05:33.868Z,8.70
2023-04-18T20:08:07.128Z,7.60
2023-04-18T20:10:34.729Z,8.93
2023-04-18T20:13:26.804Z,8.27
2023-04-18T20:15:55.272Z,8.05
2023-04-18T20:21:15.908Z,8.10
2023-04-18T20:23:44.272Z,7.03
2023-04-18T20:26:12.520Z,7.10
2023-04-18T20:28:42.316Z,7.22
2023-04-18T20:31:12.188Z,5.65
2023-04-18T20:33:41.861Z,9.20
2023-04-18T20:36:09.318Z,6.85
2023-04-18T20:38:37.331Z,6.97
2023-04-18T20:41:06.316Z,7.18
2023-04-18T20:43:35.231Z,7.47
2023-04-18T20:46:03.674Z,7.75
2023-04-18T20:48:30.997Z,8.20
2023-04-18T20:50:57.954Z,8.77
2023-04-18T20:53:25.096Z,8.85
2023-04-18T20:55:53.133Z,7.53
2023-04-18T20:58:20.382Z,8.10
2023-04-18T21:00:47.416Z,7.70
2023-04-18T21:03:15.420Z,8.67
2023-04-18T21:05:44.500Z,7.60
2023-04-18T21:08:12.130Z,8.23
2023-04-18T21:11:04.349Z,7.10
2023-04-18T21:13:32.745Z,8.85
2023-04-18T21:15:59.671Z,7.80
2023-04-18T21:18:27.392Z,8.38
2023-04-18T21:20:54.147Z,7.50
2023-04-18T21:23:25.856Z,6.53
2023-04-18T21:25:52.905Z,6.72
2023-04-18T21:28:19.848Z,7.00
2023-04-18T21:30:46.912Z,8.55
2023-04-18T21:33:15.307Z,7.07
2023-04-18T21:35:42.198Z,7.30
2023-04-18T21:38:10.034Z,6.07
2023-04-18T21:40:39.468Z,8.47
2023-04-18T21:43:07.308Z,6.72
2023-04-18T21:45:34.169Z,9.25
2023-04-18T21:48:01.176Z,7.57
2023-04-18T21:50:29.187Z,6.65
2023-04-18T21:52:56.908Z,7.30
2023-04-18T21:55:24.490Z,7.68
2023-04-18T21:57:51.401Z,7.68
2023-04-18T22:00:19.358Z,8.23
2023-04-18T22:02:46.681Z,7.38
2023-04-18T22:05:13.978Z,8.07
2023-04-18T22:07:54.428Z,7.03
2023-04-18T22:10:26.778Z,7.88
2023-04-18T22:12:54.979Z,7.00
2023-04-18T22:15:22.118Z,10.48
2023-04-18T22:17:52.480Z,6.63
2023-04-18T22:20:20.156Z,9.05
2023-04-18T22:22:47.008Z,8.32
2023-04-18T22:25:14.510Z,8.00
2023-04-18T22:27:41.978Z,8.70
2023-04-18T22:30:10.519Z,8.40
2023-04-18T22:35:29.364Z,7.50
2023-04-18T22:37:56.118Z,8.80
2023-04-18T22:40:23.942Z,7.35
2023-04-18T22:42:52.378Z,7.03
2023-04-18T22:45:19.560Z,8.43
2023-04-18T22:47:48.236Z,8.57
2023-04-18T22:50:15.283Z,10.05
2023-04-18T22:52:43.045Z,8.63
2023-04-18T22:55:13.911Z,7.20
2023-04-18T22:57:40.848Z,8.88
2023-04-18T23:00:08.543Z,6.93
2023-04-18T23:02:35.417Z,8.05
2023-04-18T23:05:02.704Z,6.57
2023-04-18T23:07:29.484Z,7.27
2023-04-18T23:09:56.907Z,7.30
2023-04-18T23:12:23.874Z,9.00
2023-04-18T23:14:51.013Z,6.53
2023-04-18T23:17:18.528Z,7.38
2023-04-18T23:19:46.991Z,7.53
2023-04-18T23:22:13.772Z,9.18
2023-04-18T23:24:40.783Z,8.02
2023-04-18T23:27:07.520Z,7.00
2023-04-18T23:29:38.776Z,7.95
2023-04-18T23:32:06.592Z,7.87
2023-04-18T23:34:33.380Z,7.47
2023-04-18T23:37:00.320Z,9.38
2023-04-18T23:39:27.403Z,7.75
2023-04-18T23:41:54.983Z,8.68
2023-04-18T23:44:22.444Z,7.07
2023-04-18T23:46:50.800Z,8.82
2023-04-18T23:49:19.421Z,8.55
2023-04-18T23:51:46.970Z,9.10
2023-04-18T23:54:14.727Z,7.95
2023-04-18T23:56:41.863Z,11.33
2023-04-18T23:59:10.514Z,8.48
